Time;durP1;ratioP1;P1;durP2;ratioP2;P2;SDS_P1;SDS_P2;PMS_P1;PMS_P2;Temp;Humidity;BMP_temperature;BMP_pressure;BME280_temperature;BME280_humidity;BME280_pressure;Samples;Min_cycle;Max_cycle;Signal;HPM_P1;HPM_P2
2021/04/11 00:01:38;;;;;;;6.94;5.71;;;;;;;8.94;89.44;98618.16;2026621;77;21191;-78
2021/04/11 00:04:40;;;;;;;6.72;5.53;;;;;;;8.93;89.42;98616.44;2025214;79;20241;-77
2021/04/11 00:07:42;;;;;;;8.00;5.82;;;;;;;8.92;89.32;98606.94;2025341;79;20416;-77
2021/04/11 00:10:47;;;;;;;6.86;5.70;;;;;;;8.89;89.24;98602.66;2024600;79;20205;-78
2021/04/11 00:13:52;;;;;;;7.25;5.32;;;;;;;8.88;89.32;98605.28;2025314;79;20245;-78
2021/04/11 00:16:53;;;;;;;6.45;5.75;;;;;;;8.87;89.30;98606.16;2027412;77;20230;-78
2021/04/11 00:19:55;;;;;;;5.93;5.32;;;;;;;8.85;89.30;98606.16;2030827;79;20288;-78
2021/04/11 00:22:57;;;;;;;6.64;5.95;;;;;;;8.85;89.43;98603.59;2029913;79;20158;-79
2021/04/11 00:25:59;;;;;;;6.55;5.32;;;;;;;8.83;89.40;98594.97;2030372;79;20189;-78
2021/04/11 00:29:02;;;;;;;7.70;5.97;;;;;;;8.81;89.46;98591.56;2030237;79;21032;-78
2021/04/11 00:32:07;;;;;;;8.19;6.20;;;;;;;8.81;89.65;98588.97;2025900;77;20377;-79
2021/04/11 00:35:09;;;;;;;6.10;5.30;;;;;;;8.83;89.63;98587.22;2024325;79;20287;-78
2021/04/11 00:38:11;;;;;;;7.32;5.30;;;;;;;8.84;89.58;98586.34;2024734;79;20192;-78
2021/04/11 00:41:35;;;;;;;5.93;5.32;;;;;;;8.84;89.54;98583.75;2025720;79;20191;-79
2021/04/11 00:44:37;;;;;;;6.60;4.80;;;;;;;8.86;89.56;98575.97;2025055;79;20170;-78
2021/04/11 00:47:40;;;;;;;5.19;4.65;;;;;;;8.87;89.71;98575.94;2029497;77;20193;-79
2021/04/11 00:50:58;;;;;;;4.03;3.53;;;;;;;8.91;89.76;98571.59;2030355;79;20291;-80
2021/04/11 00:54:05;;;;;;;3.29;2.99;;;;;;;8.92;89.60;98560.34;2030197;79;20186;-79
2021/04/11 00:57:09;;;;;;;3.67;3.03;;;;;;;8.91;89.60;98563.81;2030146;79;20162;-78
2021/04/11 01:00:12;;;;;;;4.14;3.10;;;;;;;8.89;89.66;98558.66;2029337;79;20166;-78
2021/04/11 01:03:23;;;;;;;3.20;2.90;;;;;;;8.88;89.84;98551.78;2024918;79;20192;-78
2021/04/11 01:06:33;;;;;;;3.09;2.80;;;;;;;8.90;89.86;98551.75;2025276;79;20241;-78
2021/04/11 01:09:41;;;;;;;3.91;2.45;;;;;;;8.91;89.95;98549.16;2025030;79;20619;-78
2021/04/11 01:12:43;;;;;;;2.69;2.34;;;;;;;8.92;90.11;98550.00;2025018;79;20472;-78
2021/04/11 01:15:45;;;;;;;2.06;1.96;;;;;;;8.95;90.05;98547.38;2026064;77;20663;-78
2021/04/11 01:18:48;;;;;;;3.70;1.85;;;;;;;8.95;90.04;98537.88;2030535;79;20486;-79
2021/04/11 01:22:17;;;;;;;2.86;2.54;;;;;;;8.96;90.04;98533.53;2030636;79;20205;-79
2021/04/11 01:25:21;;;;;;;2.85;2.24;;;;;;;8.98;90.07;98530.09;2030500;79;20790;-78
2021/04/11 01:28:28;;;;;;;2.69;1.86;;;;;;;9.03;89.80;98524.84;2033505;79;20189;-79
2021/04/11 01:31:31;;;;;;;3.56;1.74;;;;;;;9.05;89.58;98523.94;2026852;77;20811;-78
2021/04/11 01:34:35;;;;;;;5.35;1.59;;;;;;;9.07;89.34;98526.53;2024236;80;20272;-78
2021/04/11 01:37:38;;;;;;;2.21;1.16;;;;;;;9.12;88.98;98529.03;2024746;79;20284;-79
2021/04/11 01:40:52;;;;;;;2.06;1.50;;;;;;;9.17;88.49;98533.31;2024968;80;20166;-79
2021/04/11 01:43:54;;;;;;;2.31;1.20;;;;;;;9.19;88.15;98534.16;2024562;80;20227;-79
2021/04/11 01:46:56;;;;;;;1.70;0.98;;;;;;;9.22;87.75;98533.25;2028052;77;20645;-79
2021/04/11 01:49:58;;;;;;;1.86;1.04;;;;;;;9.23;87.28;98528.03;2030201;79;20795;-78
2021/04/11 01:53:01;;;;;;;1.41;1.06;;;;;;;9.26;86.94;98530.59;2030352;79;20737;-80
2021/04/11 01:56:05;;;;;;;1.74;0.96;;;;;;;9.28;86.57;98527.97;2030592;79;20629;-79
2021/04/11 01:59:11;;;;;;;3.26;1.00;;;;;;;9.28;86.19;98526.25;2030216;79;20218;-78
2021/04/11 02:02:16;;;;;;;2.14;1.09;;;;;;;9.29;85.91;98520.19;2027204;77;24810;-78
2021/04/11 02:05:19;;;;;;;2.97;0.93;;;;;;;9.28;85.68;98518.47;2025832;80;20780;-79
2021/04/11 02:08:24;;;;;;;2.03;0.90;;;;;;;9.27;85.59;98513.31;2026260;80;20585;-78
2021/04/11 02:11:26;;;;;;;1.71;1.39;;;;;;;9.26;85.55;98503.81;2026719;80;20175;-79
2021/04/11 02:14:29;;;;;;;4.54;1.67;;;;;;;9.25;85.50;98502.97;2026591;79;20183;-79
2021/04/11 02:17:31;;;;;;;1.08;0.96;;;;;;;9.21;85.61;98501.31;2031613;77;20653;-79
2021/04/11 02:20:33;;;;;;;1.67;0.89;;;;;;;9.18;85.92;98496.19;2032279;79;20215;-80
2021/04/11 02:23:36;;;;;;;1.61;0.91;;;;;;;9.15;85.98;98500.50;2032309;79;20525;-79
2021/04/11 02:26:42;;;;;;;6.82;1.17;;;;;;;9.13;86.00;98502.28;2032813;79;20199;-79
2021/04/11 02:29:45;;;;;;;1.58;0.80;;;;;;;9.13;86.05;98503.13;2032807;79;20264;-80
2021/04/11 02:32:49;;;;;;;4.47;1.15;;;;;;;9.09;86.09;98501.47;2032127;77;23123;-79
2021/04/11 02:35:51;;;;;;;2.05;1.11;;;;;;;9.07;86.21;98501.47;2021409;80;20163;-78
2021/04/11 02:38:56;;;;;;;1.81;0.90;;;;;;;9.08;85.99;98498.00;2022121;80;20171;-79
2021/04/11 02:42:01;;;;;;;3.76;1.39;;;;;;;9.08;85.76;98494.56;2022037;79;20183;-80
2021/04/11 02:45:12;;;;;;;2.05;0.84;;;;;;;9.06;85.86;98496.31;2021113;80;20175;-80
2021/04/11 02:48:15;;;;;;;3.60;0.86;;;;;;;9.01;86.24;98495.53;2012535;80;20200;-83
2021/04/11 02:51:17;;;;;;;2.88;0.95;;;;;;;9.04;86.12;98498.94;2011901;80;20172;-80
2021/04/11 02:54:22;;;;;;;3.80;1.59;;;;;;;9.02;86.15;98494.66;2011777;80;20225;-79
2021/04/11 02:57:25;;;;;;;2.09;0.91;;;;;;;8.99;86.54;98492.13;2011937;80;20681;-79
2021/04/11 03:00:32;;;;;;;1.99;0.91;;;;;;;8.96;86.73;98484.34;2011082;80;24085;-79
2021/04/11 03:03:34;;;;;;;2.19;0.81;;;;;;;8.96;86.84;98492.97;2010837;80;20202;-79
2021/04/11 03:06:40;;;;;;;2.84;0.76;;;;;;;8.97;86.78;98492.09;2010115;80;20260;-79
2021/04/11 03:09:46;;;;;;;4.24;0.82;;;;;;;8.97;86.80;98488.66;2010471;80;20218;-78
2021/04/11 03:12:51;;;;;;;0.76;0.70;;;;;;;8.97;86.66;98488.66;2010166;80;20177;-79
2021/04/11 03:15:56;;;;;;;2.08;0.80;;;;;;;8.96;86.68;98489.53;2009841;77;20215;-79
2021/04/11 03:18:59;;;;;;;4.35;0.77;;;;;;;8.96;86.60;98489.53;2010013;80;20241;-79
2021/04/11 03:22:01;;;;;;;2.74;1.00;;;;;;;8.94;86.78;98491.28;2010806;80;20209;-79
2021/04/11 03:25:05;;;;;;;2.75;1.13;;;;;;;8.92;86.87;98485.28;2009515;80;20180;-80
2021/04/11 03:28:17;;;;;;;2.11;0.91;;;;;;;8.90;87.03;98487.88;2010812;80;20792;-79
2021/04/11 03:31:30;;;;;;;3.95;0.89;;;;;;;8.91;87.05;98487.00;2009151;77;20257;-79
2021/04/11 03:34:33;;;;;;;3.09;0.86;;;;;;;8.91;87.06;98491.34;2015284;80;20304;-80
2021/04/11 03:37:37;;;;;;;1.88;0.73;;;;;;;8.91;87.10;98483.56;2021333;80;20196;-80
2021/04/11 03:40:41;;;;;;;3.00;0.79;;;;;;;8.86;87.07;98483.63;2021139;80;20239;-80
2021/04/11 03:43:51;;;;;;;1.20;0.84;;;;;;;8.88;86.92;98476.69;2021208;79;20166;-80
2021/04/11 03:47:00;;;;;;;1.63;0.89;;;;;;;8.84;86.86;98480.22;2020513;77;20672;-78
2021/04/11 03:50:29;;;;;;;1.52;0.90;;;;;;;8.79;87.08;98481.97;2020230;80;20300;-79
2021/04/11 03:54:03;;;;;;;2.05;1.20;;;;;;;8.77;86.96;98476.81;2021355;80;20214;-80
2021/04/11 03:57:12;;;;;;;1.94;0.80;;;;;;;8.75;86.91;98478.56;2021186;80;20163;-80
2021/04/11 04:00:24;;;;;;;1.42;0.80;;;;;;;8.71;86.75;98478.63;2020758;77;22786;-81
2021/04/11 04:03:30;;;;;;;0.99;0.70;;;;;;;8.67;86.81;98480.41;2015293;80;20195;-80
2021/04/11 04:06:35;;;;;;;3.20;1.00;;;;;;;8.65;86.97;98481.31;2015911;80;20172;-80
2021/04/11 04:09:38;;;;;;;1.39;0.60;;;;;;;8.62;87.00;98476.16;2019410;80;20186;-80
2021/04/11 04:12:55;;;;;;;1.61;0.90;;;;;;;8.57;87.07;98483.09;2015966;80;20172;-80
2021/04/11 04:16:25;;;;;;;2.67;0.75;;;;;;;8.50;87.03;98479.72;2014367;77;20197;-80
2021/04/11 04:20:00;;;;;;;2.00;0.95;;;;;;;8.48;86.79;98486.66;2014956;80;20795;-81
2021/04/11 04:23:16;;;;;;;1.75;0.68;;;;;;;8.48;86.78;98482.34;2017071;80;20258;-80
2021/04/11 04:26:23;;;;;;;2.15;0.81;;;;;;;8.48;86.49;98486.66;2015635;80;20227;-81
2021/04/11 04:29:40;;;;;;;4.28;1.00;;;;;;;8.46;86.26;98491.00;2016050;80;20968;-80
2021/04/11 04:32:52;;;;;;;2.04;0.80;;;;;;;8.43;86.19;98499.63;2019812;77;20208;-80
2021/04/11 04:36:18;;;;;;;0.96;0.73;;;;;;;8.39;85.99;98494.50;2024344;80;20336;-80
2021/04/11 04:39:35;;;;;;;1.33;0.70;;;;;;;8.29;85.73;98485.09;2022752;80;20925;-81
2021/04/11 04:42:48;;;;;;;3.92;0.60;;;;;;;8.15;85.65;98487.81;2025396;79;20324;-82
2021/04/11 04:46:09;;;;;;;2.11;0.80;;;;;;;8.04;85.92;98490.47;2020703;77;25345;-80
2021/04/11 04:49:31;;;;;;;1.40;0.70;;;;;;;8.05;85.98;98505.13;2017352;80;20320;-80
2021/04/11 04:52:34;;;;;;;1.20;0.64;;;;;;;8.10;86.33;98503.38;2017934;80;20787;-80
2021/04/11 04:55:39;;;;;;;2.97;1.15;;;;;;;8.17;86.43;98509.34;2019612;80;20333;-81
2021/04/11 04:58:45;;;;;;;5.95;1.16;;;;;;;8.26;86.15;98509.28;2022693;80;20313;-81
2021/04/11 05:01:54;;;;;;;3.42;1.15;;;;;;;8.34;85.58;98507.47;2023591;79;20345;-81
2021/04/11 05:04:59;;;;;;;;;;;;;;;8.43;84.80;98498.75;2025697;80;20514;-80
2021/04/11 05:08:10;;;;;;;1.96;1.08;;;;;;;8.49;84.07;98493.53;2027186;80;20459;-82
2021/04/11 05:11:25;;;;;;;1.51;0.71;;;;;;;8.50;83.97;98484.06;2029891;80;20441;-83
2021/04/11 05:14:38;;;;;;;2.06;1.29;;;;;;;8.51;83.31;98483.19;2030311;80;20777;-82
2021/04/11 05:17:53;;;;;;;2.04;0.79;;;;;;;8.51;82.73;98488.34;2025795;77;21229;-82
2021/04/11 05:21:06;;;;;;;1.50;0.80;;;;;;;8.44;82.87;98493.59;2027730;80;20191;-83
2021/04/11 05:24:16;;;;;;;1.55;0.60;;;;;;;8.40;83.02;98501.38;2026625;80;20156;-83
2021/04/11 05:27:29;;;;;;;3.75;0.98;;;;;;;8.35;83.41;98493.69;2027772;80;20188;-83
2021/04/11 05:30:38;;;;;;;2.19;0.80;;;;;;;8.34;83.97;98498.88;2024562;77;20792;-83
2021/04/11 05:33:41;;;;;;;3.04;0.71;;;;;;;8.39;83.56;98510.88;2030563;80;20339;-82
2021/04/11 05:36:42;;;;;;;2.29;0.90;;;;;;;8.51;83.27;98507.31;2032818;80;20194;-82
2021/04/11 05:39:54;;;;;;;1.56;0.77;;;;;;;8.56;83.71;98513.28;2031566;80;20258;-84
2021/04/11 05:43:02;;;;;;;4.64;1.27;;;;;;;8.64;84.03;98518.41;2033622;80;20656;-80
2021/04/11 05:46:12;;;;;;;3.06;0.93;;;;;;;8.79;83.29;98508.72;2022641;77;20351;-81
2021/04/11 05:49:20;;;;;;;2.86;0.74;;;;;;;8.97;82.36;98525.75;2016802;80;20726;-80
2021/04/11 05:52:29;;;;;;;3.49;0.74;;;;;;;9.08;81.68;98526.50;2016517;80;20176;-80
2021/04/11 05:55:36;;;;;;;2.00;0.96;;;;;;;9.19;80.93;98525.53;2015575;80;20221;-79
2021/04/11 05:58:48;;;;;;;2.44;0.70;;;;;;;9.26;79.97;98512.47;2015470;80;20992;-80
2021/04/11 06:01:54;;;;;;;4.14;0.71;;;;;;;9.33;79.53;98511.47;2020258;77;21324;-80
2021/04/11 06:05:06;;;;;;;1.79;0.68;;;;;;;9.40;78.91;98517.47;2022950;80;20183;-80
2021/04/11 06:08:15;;;;;;;1.61;0.60;;;;;;;9.47;78.13;98520.81;2023337;80;20238;-80
2021/04/11 06:11:25;;;;;;;3.15;0.65;;;;;;;9.54;77.98;98520.72;2022283;80;20163;-81
2021/04/11 06:14:45;;;;;;;1.70;0.76;;;;;;;9.70;77.83;98523.94;2020217;80;20324;-79
2021/04/11 06:17:49;;;;;;;1.94;0.70;;;;;;;9.89;76.36;98520.19;2014644;77;20209;-79
2021/04/11 06:20:53;;;;;;;1.36;0.64;;;;;;;10.05;76.15;98528.56;2014995;80;20205;-79
2021/04/11 06:24:16;;;;;;;1.60;0.74;;;;;;;10.10;76.13;98525.91;2015373;80;20183;-78
2021/04/11 06:27:39;;;;;;;3.05;0.60;;;;;;;10.11;74.78;98525.03;2015140;80;20197;-78
2021/04/11 06:30:53;;;;;;;1.55;0.80;;;;;;;10.16;74.64;98520.63;2016141;77;21372;-78
2021/04/11 06:34:00;;;;;;;4.26;1.06;;;;;;;10.23;74.61;98522.25;2020578;80;20191;-78
2021/04/11 06:37:05;;;;;;;4.29;0.90;;;;;;;10.29;73.91;98519.56;2020574;80;20305;-79
2021/04/11 06:40:30;;;;;;;3.03;1.11;;;;;;;10.45;73.44;98527.94;2023883;80;20178;-80
2021/04/11 06:44:06;;;;;;;2.91;0.68;;;;;;;10.51;73.06;98543.38;2019029;80;20199;-80
2021/04/11 06:47:42;;;;;;;1.30;0.70;;;;;;;10.45;73.57;98540.91;2017777;77;20189;-82
2021/04/11 06:50:58;;;;;;;0.95;0.70;;;;;;;10.38;73.06;98544.47;2017487;80;20180;-79
2021/04/11 06:54:33;;;;;;;2.47;0.80;;;;;;;10.32;73.39;98545.44;2014468;80;20196;-70
2021/04/11 06:57:43;;;;;;;2.26;0.76;;;;;;;10.23;73.83;98538.69;2014334;80;20197;-76
2021/04/11 07:01:03;;;;;;;2.45;0.84;;;;;;;10.09;75.10;98529.38;2014610;77;20225;-73
2021/04/11 07:04:13;;;;;;;3.39;1.16;;;;;;;10.03;75.51;98542.44;2019628;80;20297;-73
2021/04/11 07:07:53;;;;;;;1.35;0.50;;;;;;;9.99;75.66;98539.03;2019971;80;20199;-75
2021/04/11 07:11:27;;;;;;;2.58;0.80;;;;;;;9.98;75.54;98532.16;2020041;80;20187;-75
2021/04/11 07:14:32;;;;;;;1.14;0.94;;;;;;;9.95;75.85;98537.38;2019033;80;20205;-73
2021/04/11 07:18:13;;;;;;;1.85;0.84;;;;;;;9.94;75.78;98536.53;2014942;77;40989;-72
2021/04/11 07:21:30;;;;;;;1.39;0.63;;;;;;;9.92;75.61;98537.44;2014443;80;20176;-72
2021/04/11 07:25:06;;;;;;;2.03;0.75;;;;;;;9.92;75.59;98543.47;2013811;80;20167;-74
2021/04/11 07:28:50;;;;;;;3.70;0.81;;;;;;;9.93;75.79;98547.78;2014607;80;21034;-73
2021/04/11 07:32:06;;;;;;;3.33;0.70;;;;;;;9.89;76.30;98550.44;2014385;77;20297;-78
2021/04/11 07:35:25;;;;;;;3.74;0.70;;;;;;;9.90;75.80;98546.97;2019936;80;20371;-72
2021/04/11 07:38:47;;;;;;;3.24;0.70;;;;;;;9.91;75.74;98543.50;2019232;80;20602;-73
2021/04/11 07:42:13;;;;;;;2.78;0.73;;;;;;;9.93;75.59;98536.56;2019851;80;20171;-73
2021/04/11 07:45:25;;;;;;;1.71;0.61;;;;;;;9.97;75.34;98546.00;2017882;77;21531;-74
2021/04/11 07:48:39;;;;;;;3.51;0.82;;;;;;;10.00;75.40;98551.97;2014727;80;20221;-73
2021/04/11 07:51:52;;;;;;;2.05;0.75;;;;;;;10.03;75.38;98556.25;2014171;80;20692;-73
2021/04/11 07:55:13;;;;;;;2.01;0.80;;;;;;;10.06;75.32;98551.03;2014269;80;20862;-74
2021/04/11 07:58:28;;;;;;;4.47;0.94;;;;;;;10.11;75.74;98554.41;2012892;80;20203;-74
2021/04/11 08:01:46;;;;;;;3.44;0.80;;;;;;;10.18;76.14;98558.59;2014381;77;73660;-72
2021/04/11 08:05:16;;;;;;;2.76;1.02;;;;;;;10.23;76.45;98559.44;2018746;80;20386;-72
2021/04/11 08:08:40;;;;;;;2.38;0.84;;;;;;;10.25;75.44;98565.47;2018632;80;20175;-73
2021/04/11 08:12:26;;;;;;;2.13;0.90;;;;;;;10.23;76.19;98574.13;2019031;80;20784;-74
2021/04/11 08:15:49;;;;;;;2.53;1.00;;;;;;;10.18;75.55;98575.91;2017828;77;23474;-72
2021/04/11 08:19:10;;;;;;;2.34;0.70;;;;;;;10.16;75.75;98588.91;2019936;80;20228;-71
2021/04/11 08:22:32;;;;;;;2.67;0.90;;;;;;;10.14;75.67;98582.91;2019297;80;20787;-71
2021/04/11 08:26:07;;;;;;;1.84;0.80;;;;;;;10.15;75.60;98582.00;2018837;80;20200;-72
2021/04/11 08:29:31;;;;;;;2.31;0.89;;;;;;;10.13;75.16;98588.97;2019023;80;20193;-73
2021/04/11 08:33:20;;;;;;;4.97;1.00;;;;;;;10.13;75.41;98599.34;2014215;76;22246;-73
2021/04/11 08:36:40;;;;;;;;;;;;;;;10.13;75.60;98601.94;1993188;81;20623;-73
2021/04/11 08:39:53;;;;;;;2.50;0.80;;;;;;;10.10;75.75;98607.19;1993771;80;20098;-74
2021/04/11 08:43:23;;;;;;;1.49;0.70;;;;;;;10.08;76.36;98606.34;2004992;80;20196;-74
2021/04/11 08:46:44;;;;;;;2.39;0.85;;;;;;;10.00;77.25;98614.22;2005433;77;21633;-72
2021/04/11 08:49:55;;;;;;;1.51;0.80;;;;;;;9.94;78.27;98606.53;2009049;80;20192;-73
2021/04/11 08:53:10;;;;;;;1.76;0.80;;;;;;;9.93;79.21;98614.34;2008445;80;20214;-72
2021/04/11 08:56:28;;;;;;;2.15;0.88;;;;;;;9.89;80.05;98626.50;2009035;80;20314;-72
2021/04/11 08:59:59;;;;;;;1.74;0.90;;;;;;;9.85;80.66;98624.81;2009358;80;20214;-72
2021/04/11 09:03:27;;;;;;;3.92;0.90;;;;;;;9.88;80.93;98624.78;2002779;78;24419;-72
2021/04/11 09:06:52;;;;;;;2.29;1.25;;;;;;;9.90;81.80;98642.91;2002265;80;20747;-72
2021/04/11 09:10:13;;;;;;;3.75;0.90;;;;;;;9.87;81.89;98635.16;2002009;80;20192;-73
2021/04/11 09:13:26;;;;;;;2.22;0.90;;;;;;;9.87;81.94;98630.81;2001564;80;20184;-74
2021/04/11 09:16:40;;;;;;;4.11;1.19;;;;;;;9.85;82.30;98632.59;2003588;77;51863;-74
2021/04/11 09:19:56;;;;;;;3.67;1.00;;;;;;;9.87;82.48;98633.41;2007787;80;20225;-77
2021/04/11 09:23:10;;;;;;;3.15;1.11;;;;;;;9.90;83.01;98617.00;2007589;80;20172;-73
2021/04/11 09:26:32;;;;;;;1.92;1.10;;;;;;;9.94;83.40;98632.47;2007720;80;21177;-73
2021/04/11 09:29:56;;;;;;;1.30;0.90;;;;;;;10.03;83.18;98628.03;2007234;80;20303;-73
2021/04/11 09:33:26;;;;;;;2.06;1.00;;;;;;;10.06;83.34;98636.63;2016439;76;24212;-72
2021/04/11 09:36:57;;;;;;;4.04;0.90;;;;;;;10.11;83.25;98634.81;2023384;80;20174;-72
2021/04/11 09:40:37;;;;;;;3.61;0.90;;;;;;;10.18;83.49;98641.63;2023446;80;20735;-72
2021/04/11 09:43:57;;;;;;;1.26;0.91;;;;;;;10.23;83.21;98629.50;2021739;79;20217;-75
2021/04/11 09:47:11;;;;;;;2.06;0.94;;;;;;;10.26;82.97;98624.25;2018255;77;26935;-76
2021/04/11 09:50:24;;;;;;;1.63;1.04;;;;;;;10.29;82.72;98636.31;2016174;80;21270;-76
2021/04/11 09:53:53;;;;;;;3.63;1.50;;;;;;;10.36;82.67;98631.88;2017277;80;20648;-77
2021/04/11 09:57:15;;;;;;;4.31;0.82;;;;;;;10.40;82.35;98639.59;2017882;80;20192;-76
2021/04/11 10:00:43;;;;;;;1.99;1.01;;;;;;;10.42;82.05;98637.84;2016098;77;23060;-75
2021/04/11 10:04:22;;;;;;;1.55;0.90;;;;;;;10.41;81.95;98641.34;2014856;80;20229;-74
2021/04/11 10:07:45;;;;;;;2.55;0.80;;;;;;;10.47;82.14;98640.38;2014236;80;20197;-75
2021/04/11 10:10:47;;;;;;;1.20;0.95;;;;;;;10.50;81.88;98641.16;2012874;80;20426;-74
2021/04/11 10:13:58;;;;;;;2.08;1.50;;;;;;;10.53;81.44;98638.50;2012884;80;20217;-76
2021/04/11 10:17:19;;;;;;;3.29;1.11;;;;;;;10.59;81.32;98643.63;2015993;79;20183;-76
2021/04/11 10:20:34;;;;;;;1.01;0.85;;;;;;;10.71;81.46;98637.34;2017917;80;20846;-77
2021/04/11 10:23:50;;;;;;;4.81;0.80;;;;;;;10.83;81.57;98631.09;2017297;80;20208;-77
2021/04/11 10:27:03;;;;;;;3.10;0.90;;;;;;;10.94;80.84;98631.75;2018252;79;20207;-77
2021/04/11 10:30:09;;;;;;;1.70;1.00;;;;;;;10.97;80.34;98636.91;2016966;80;20196;-78
2021/04/11 10:33:31;;;;;;;2.55;0.93;;;;;;;11.05;80.29;98639.34;2011540;77;21576;-77
2021/04/11 10:36:37;;;;;;;2.78;1.38;;;;;;;11.09;80.57;98633.22;2011406;80;20219;-77
2021/04/11 10:39:57;;;;;;;3.75;1.48;;;;;;;11.16;80.66;98637.44;2014556;80;20187;-78
2021/04/11 10:43:41;;;;;;;2.42;1.11;;;;;;;11.22;81.10;98641.63;2012613;80;20183;-77
2021/04/11 10:47:21;;;;;;;3.00;1.08;;;;;;;11.31;81.20;98641.44;2011633;77;20676;-74
2021/04/11 10:50:39;;;;;;;2.01;1.14;;;;;;;11.35;80.80;98636.19;2018970;80;20301;-74
2021/04/11 10:54:19;;;;;;;2.62;0.99;;;;;;;11.37;80.68;98642.19;2018347;80;20206;-75
2021/04/11 10:57:26;;;;;;;;;;;;;;;11.34;80.68;98634.47;2016546;80;20188;-76
2021/04/11 11:01:05;;;;;;;2.10;0.89;;;;;;;11.36;80.83;98637.03;2016647;77;21087;-76
2021/04/11 11:04:28;;;;;;;2.70;1.13;;;;;;;11.48;81.68;98640.22;2009757;80;20311;-76
2021/04/11 11:07:56;;;;;;;2.67;0.90;;;;;;;11.49;81.58;98635.91;2012777;80;20193;-75
2021/04/11 11:11:35;;;;;;;2.63;1.00;;;;;;;11.69;81.81;98635.50;2013321;80;20291;-76
2021/04/11 11:14:43;;;;;;;2.05;1.09;;;;;;;11.77;80.80;98631.84;2015355;80;20184;-75
2021/04/11 11:18:23;;;;;;;2.00;1.20;;;;;;;11.99;80.43;98636.59;2018504;77;20637;-75
2021/04/11 11:21:39;;;;;;;1.14;0.82;;;;;;;12.04;79.65;98642.56;2019948;80;20171;-75
2021/04/11 11:25:02;;;;;;;1.63;0.90;;;;;;;12.16;80.04;98647.47;2020633;80;20163;-76
2021/04/11 11:28:29;;;;;;;3.31;0.98;;;;;;;12.16;79.81;98646.63;2020674;80;20155;-76
2021/04/11 11:31:58;;;;;;;1.86;0.90;;;;;;;11.97;78.31;98651.38;2016413;78;23196;-75
2021/04/11 11:35:10;;;;;;;;;;;;;;;11.79;78.82;98644.84;2014123;80;20854;-76
2021/04/11 11:38:20;;;;;;;1.92;0.89;;;;;;;11.65;79.36;98646.81;2015196;80;20052;-76
2021/04/11 11:41:39;;;;;;;1.56;0.85;;;;;;;11.54;79.50;98656.63;2015268;80;20213;-76
2021/04/11 11:45:28;;;;;;;3.69;0.90;;;;;;;11.40;80.35;98664.69;2014101;80;20782;-75
2021/04/11 11:48:58;;;;;;;1.63;1.06;;;;;;;11.29;81.37;98670.06;2012964;80;20232;-76
2021/04/11 11:52:26;;;;;;;4.13;1.16;;;;;;;11.15;82.23;98669.50;2019543;80;20720;-75
2021/04/11 11:55:33;;;;;;;2.28;1.41;;;;;;;11.09;82.95;98673.03;2013037;80;20208;-75
2021/04/11 11:58:46;;;;;;;2.09;0.98;;;;;;;11.06;83.47;98677.44;2019966;80;20294;-76
2021/04/11 12:01:54;;;;;;;1.75;0.80;;;;;;;11.05;84.07;98675.72;2021985;79;20610;-75
2021/04/11 12:04:56;;;;;;;;;;;;;;;11.05;84.52;98679.19;2024063;79;20189;-75
2021/04/11 12:08:05;;;;;;;2.23;0.80;;;;;;;11.06;84.77;98674.84;2026797;79;20079;-76
2021/04/11 12:11:15;;;;;;;2.00;0.80;;;;;;;11.14;84.90;98685.97;2026081;79;20182;-74
2021/04/11 12:14:30;;;;;;;1.20;0.75;;;;;;;11.14;84.43;98685.97;2025550;79;20190;-76
2021/04/11 12:17:57;;;;;;;1.95;1.10;;;;;;;11.20;84.43;98686.69;2021320;77;20866;-75
2021/04/11 12:21:16;;;;;;;3.08;1.11;;;;;;;11.18;84.12;98685.88;2021325;80;20217;-75
2021/04/11 12:24:22;;;;;;;1.04;0.80;;;;;;;11.22;84.21;98681.47;2021934;80;20201;-75
2021/04/11 12:27:34;;;;;;;1.29;0.80;;;;;;;11.24;84.34;98692.69;2021123;80;20203;-75
2021/04/11 12:30:38;;;;;;;0.88;0.71;;;;;;;11.28;84.23;98696.09;2022142;79;20414;-75
2021/04/11 12:33:57;;;;;;;1.25;0.75;;;;;;;11.25;83.60;98694.41;2026302;79;20170;-76
2021/04/11 12:37:21;;;;;;;2.55;1.69;;;;;;;11.30;83.38;98702.09;2023809;79;20223;-74
2021/04/11 12:40:47;;;;;;;1.40;0.89;;;;;;;11.34;83.19;98694.25;2024234;79;20305;-74
2021/04/11 12:44:32;;;;;;;1.36;0.95;;;;;;;11.33;82.88;98696.88;2024504;79;20296;-77
2021/04/11 12:47:49;;;;;;;4.20;3.83;;;;;;;11.35;82.78;98702.91;2019569;77;20386;-75
2021/04/11 12:50:54;;;;;;;9.26;5.86;;;;;;;11.37;83.16;98699.38;2019218;80;20242;-75
2021/04/11 12:54:19;;;;;;;10.94;8.88;;;;;;;11.42;83.49;98707.94;2018746;80;20199;-75
2021/04/11 12:57:31;;;;;;;4.13;1.88;;;;;;;11.56;83.65;98704.22;2018784;80;20199;-74
2021/04/11 13:01:09;;;;;;;1.63;1.29;;;;;;;11.74;83.26;98711.66;2016937;77;185171;-75
2021/04/11 13:04:51;;;;;;;1.81;1.33;;;;;;;11.89;83.21;98721.81;2017319;79;20206;-73
2021/04/11 13:07:58;;;;;;;2.31;1.16;;;;;;;11.91;82.44;98719.16;2002869;80;20668;-74
2021/04/11 13:11:09;;;;;;;1.26;1.17;;;;;;;11.87;81.64;98726.19;2002753;80;20201;-74
2021/04/11 13:14:30;;;;;;;1.31;0.95;;;;;;;11.80;80.86;98729.78;2002075;80;20917;-74
2021/04/11 13:17:52;;;;;;;2.46;1.42;;;;;;;11.73;81.61;98725.56;1997249;78;21955;-77
2021/04/11 13:21:33;;;;;;;1.34;1.08;;;;;;;11.69;81.30;98731.72;1997708;81;20186;-74
2021/04/11 13:24:41;;;;;;;1.51;0.96;;;;;;;11.58;81.36;98731.06;1998874;81;20640;-74
2021/04/11 13:28:18;;;;;;;1.40;1.30;;;;;;;11.56;81.93;98730.22;1999608;81;20659;-74
2021/04/11 13:31:26;;;;;;;1.15;1.06;;;;;;;11.47;82.02;98732.09;1997949;78;21122;-73
2021/04/11 13:34:51;;;;;;;1.24;1.13;;;;;;;11.42;81.95;98725.28;2002587;80;20246;-75
2021/04/11 13:38:16;;;;;;;2.30;1.09;;;;;;;11.44;82.50;98726.09;2006205;80;20206;-74
2021/04/11 13:41:35;;;;;;;1.67;1.10;;;;;;;11.47;82.62;98729.50;2017762;80;21294;-74
2021/04/11 13:45:08;;;;;;;1.77;1.10;;;;;;;11.41;82.97;98728.78;2020304;80;20178;-74
2021/04/11 13:48:17;;;;;;;0.56;0.56;;;;;;;11.39;83.44;98738.34;2017478;77;21054;-75
2021/04/11 13:51:43;;;;;;;0.47;0.47;;;;;;;10.99;80.97;98741.63;2017059;80;20206;-74
2021/04/11 13:55:14;;;;;;;0.47;0.47;;;;;;;10.97;81.61;98752.94;2015161;80;20167;-74
2021/04/11 13:58:22;;;;;;;2.10;0.40;;;;;;;10.73;80.83;98747.22;2017502;80;20640;-77
2021/04/11 14:01:35;;;;;;;0.29;0.29;;;;;;;10.51;80.56;98761.41;2016377;77;20711;-75
2021/04/11 14:05:11;;;;;;;0.77;0.50;;;;;;;10.21;80.58;98762.69;2017459;80;20167;-74
2021/04/11 14:08:30;;;;;;;0.26;0.26;;;;;;;10.04;81.07;98773.25;2016718;80;20192;-74
2021/04/11 14:11:49;;;;;;;0.40;0.30;;;;;;;9.72;80.41;98784.00;2018199;80;21279;-73
2021/04/11 14:15:13;;;;;;;0.80;0.30;;;;;;;9.47;80.97;98782.53;2017462;80;20205;-74
2021/04/11 14:18:21;;;;;;;0.32;0.30;;;;;;;9.40;81.54;98786.91;2007434;77;28378;-73
2021/04/11 14:21:26;;;;;;;0.57;0.30;;;;;;;9.23;81.63;98791.38;2007484;80;20184;-74
2021/04/11 14:24:34;;;;;;;3.66;2.90;;;;;;;9.25;82.48;98795.69;2007083;80;20291;-74
2021/04/11 14:27:53;;;;;;;12.39;10.26;;;;;;;9.14;82.42;98802.66;2006815;80;20335;-74
2021/04/11 14:31:14;;;;;;;10.56;8.35;;;;;;;9.25;82.92;98808.63;2011556;77;32524;-73
2021/04/11 14:34:27;;;;;;;5.30;4.81;;;;;;;9.34;82.87;98820.66;2019765;79;20174;-74
2021/04/11 14:37:29;;;;;;;0.60;0.60;;;;;;;9.27;82.26;98818.97;2022430;79;20756;-75
2021/04/11 14:40:37;;;;;;;0.96;0.69;;;;;;;9.23;81.81;98825.06;2023210;79;20181;-75
2021/04/11 14:43:55;;;;;;;1.10;0.99;;;;;;;9.28;82.70;98812.91;2022656;79;20196;-76
2021/04/11 14:47:00;;;;;;;0.79;0.79;;;;;;;9.26;82.01;98825.03;2019027;77;29011;-75
2021/04/11 14:50:10;;;;;;;0.76;0.60;;;;;;;9.25;81.99;98831.94;2017793;80;21181;-76
2021/04/11 14:53:32;;;;;;;1.55;0.40;;;;;;;9.23;81.85;98838.88;2017320;80;20196;-74
2021/04/11 14:57:04;;;;;;;1.75;0.39;;;;;;;9.15;81.64;98844.97;2020870;80;20323;-75
2021/04/11 15:00:46;;;;;;;0.25;0.25;;;;;;;9.16;82.78;98851.91;2017331;79;20197;-75
2021/04/11 15:03:53;;;;;;;0.20;0.20;;;;;;;9.12;82.27;98863.97;2016050;79;20170;-75
2021/04/11 15:07:15;;;;;;;0.38;0.30;;;;;;;8.96;81.84;98860.63;2021432;79;20339;-76
2021/04/11 15:10:42;;;;;;;0.40;0.40;;;;;;;8.88;81.43;98866.75;2020152;79;21060;-76
2021/04/11 15:13:50;;;;;;;1.66;0.40;;;;;;;8.81;81.57;98868.53;2022293;79;20185;-76
2021/04/11 15:17:32;;;;;;;0.50;0.50;;;;;;;8.79;82.05;98880.59;2018694;77;20282;-76
2021/04/11 15:20:37;;;;;;;0.68;0.59;;;;;;;8.77;82.02;98882.31;2017729;80;21232;-76
2021/04/11 15:23:59;;;;;;;2.53;0.82;;;;;;;8.67;81.91;98883.25;2017719;80;20321;-75
2021/04/11 15:27:27;;;;;;;0.40;0.40;;;;;;;8.58;81.83;98891.91;2017118;80;20568;-77